createdAt,value
2018-06-08T00:00:05.406Z,68.16
2018-06-08T00:02:32.877Z,68.42
2018-06-08T00:05:00.333Z,68.30
2018-06-08T00:07:27.844Z,68.12
2018-06-08T00:09:55.880Z,68.07
2018-06-08T00:12:23.839Z,68.61
2018-06-08T00:14:51.301Z,68.63
2018-06-08T00:17:18.777Z,68.76
2018-06-08T00:19:46.284Z,68.79
2018-06-08T00:22:13.942Z,68.63
2018-06-08T00:24:41.361Z,68.23
2018-06-08T00:27:08.811Z,68.16
2018-06-08T00:29:36.303Z,68.22
2018-06-08T00:32:03.735Z,68.41
2018-06-08T00:34:31.164Z,68.23
2018-06-08T00:36:58.562Z,68.06
2018-06-08T00:39:26.047Z,68.27
2018-06-08T00:41:53.531Z,68.29
2018-06-08T00:44:21.027Z,68.45
2018-06-08T00:46:49.710Z,68.67
2018-06-08T00:49:17.191Z,68.71
2018-06-08T00:51:44.690Z,68.65
2018-06-08T00:54:12.097Z,68.63
2018-06-08T00:56:39.554Z,68.28
2018-06-08T00:59:15.610Z,67.70
2018-06-08T01:01:43.076Z,67.19
2018-06-08T01:04:10.484Z,67.19
2018-06-08T01:06:37.892Z,66.83
2018-06-08T01:09:05.475Z,66.55
2018-06-08T01:11:32.907Z,66.52
2018-06-08T01:22:31.829Z,66.40
2018-06-08T01:24:59.929Z,66.28
2018-06-08T01:27:27.516Z,66.27
2018-06-08T01:29:54.946Z,66.31
2018-06-08T01:32:22.426Z,66.27
2018-06-08T01:34:49.867Z,66.16
2018-06-08T01:37:17.273Z,66.02
2018-06-08T01:39:45.397Z,66.35
2018-06-08T01:42:12.831Z,66.55
2018-06-08T01:44:40.250Z,66.69
2018-06-08T01:47:07.693Z,66.77
2018-06-08T01:49:35.090Z,66.67
2018-06-08T01:52:03.373Z,66.65
2018-06-08T01:54:30.787Z,66.63
2018-06-08T01:56:58.220Z,66.57
2018-06-08T01:59:25.658Z,66.74
2018-06-08T02:01:53.230Z,66.91
2018-06-08T02:04:22.402Z,66.80
2018-06-08T02:06:49.877Z,66.77
2018-06-08T02:09:18.022Z,67.15
2018-06-08T02:11:45.463Z,67.15
2018-06-08T02:14:12.877Z,67.50
2018-06-08T02:16:40.315Z,67.47
2018-06-08T02:19:08.977Z,67.51
2018-06-08T02:21:40.778Z,67.56
2018-06-08T02:24:08.594Z,67.83
2018-06-08T02:26:36.019Z,68.24
2018-06-08T02:29:03.513Z,68.42
2018-06-08T02:31:30.923Z,68.67
2018-06-08T02:33:58.322Z,68.79
2018-06-08T02:36:25.782Z,68.93
2018-06-08T02:38:53.236Z,69.34
2018-06-08T02:41:20.777Z,69.67
2018-06-08T02:43:52.543Z,69.84
2018-06-08T02:46:21.586Z,69.89
2018-06-08T02:48:49.063Z,69.99
2018-06-08T02:51:16.514Z,70.18
2018-06-08T02:53:44.028Z,70.29
2018-06-08T02:56:11.495Z,70.24
2018-06-08T02:58:40.157Z,70.40
2018-06-08T03:01:07.620Z,70.50
2018-06-08T03:03:35.166Z,70.68
2018-06-08T03:06:02.637Z,71.02
2018-06-08T03:08:30.091Z,71.24
2018-06-08T03:10:57.523Z,71.53
2018-06-08T03:13:24.919Z,71.93
2018-06-08T03:15:52.443Z,72.20
2018-06-08T03:18:20.940Z,72.20
2018-06-08T03:20:48.429Z,72.24
2018-06-08T03:23:15.833Z,72.35
2018-06-08T03:25:43.299Z,72.36
2018-06-08T03:28:12.227Z,72.35
2018-06-08T03:30:39.653Z,72.42
2018-06-08T03:33:07.398Z,72.43
2018-06-08T03:35:35.591Z,72.50
2018-06-08T03:38:03.454Z,72.42
2018-06-08T03:40:32.051Z,72.28
2018-06-08T03:42:59.515Z,71.99
2018-06-08T03:45:27.067Z,71.77
2018-06-08T03:47:56.027Z,72.11
2018-06-08T03:50:23.509Z,72.01
2018-06-08T03:52:50.958Z,71.86
2018-06-08T03:55:18.407Z,71.89
2018-06-08T03:57:45.866Z,71.83
2018-06-08T04:00:14.152Z,72.00
2018-06-08T04:02:41.746Z,71.73
2018-06-08T04:05:09.281Z,71.59
2018-06-08T04:07:37.316Z,71.49
2018-06-08T04:10:04.709Z,71.40
2018-06-08T04:12:32.189Z,71.32
2018-06-08T04:14:59.963Z,71.12
2018-06-08T04:17:27.429Z,71.34
2018-06-08T04:19:54.932Z,71.49
2018-06-08T04:22:23.540Z,71.71
2018-06-08T04:24:51.039Z,71.79
2018-06-08T04:27:19.517Z,71.73
2018-06-08T04:29:48.087Z,71.79
2018-06-08T04:32:16.924Z,71.95
2018-06-08T04:34:44.433Z,72.37
2018-06-08T04:37:11.903Z,72.10
2018-06-08T04:39:39.361Z,71.74
2018-06-08T04:42:06.872Z,71.64
2018-06-08T04:44:34.345Z,71.13
2018-06-08T04:47:01.772Z,70.83
2018-06-08T04:49:29.224Z,70.38
2018-06-08T04:51:56.695Z,69.99
2018-06-08T04:54:37.295Z,70.17
2018-06-08T04:57:05.818Z,69.41
2018-06-08T04:59:33.262Z,69.39
2018-06-08T05:02:00.694Z,68.93
2018-06-08T05:04:28.199Z,68.51
2018-06-08T05:06:56.175Z,68.59
2018-06-08T05:09:23.716Z,68.26
2018-06-08T05:11:51.147Z,67.83
2018-06-08T05:14:18.624Z,67.25
2018-06-08T05:16:46.090Z,66.83
2018-06-08T05:19:13.551Z,66.33
2018-06-08T05:21:40.979Z,65.76
2018-06-08T05:24:08.559Z,65.28
2018-06-08T05:26:36.075Z,64.60
2018-06-08T05:29:06.302Z,64.21
2018-06-08T05:31:33.706Z,63.79
2018-06-08T05:34:01.123Z,63.76
2018-06-08T05:36:29.752Z,63.23
2018-06-08T05:38:58.199Z,63.25
2018-06-08T05:41:25.665Z,63.53
2018-06-08T05:43:56.785Z,63.24
2018-06-08T05:46:24.241Z,63.31
2018-06-08T05:48:51.739Z,63.00
2018-06-08T05:51:19.187Z,62.86
2018-06-08T05:53:46.736Z,63.04
2018-06-08T05:56:14.165Z,63.54
2018-06-08T05:58:41.630Z,63.75
2018-06-08T06:01:09.112Z,63.78
2018-06-08T06:03:37.171Z,63.34
2018-06-08T06:06:04.758Z,63.22
2018-06-08T06:08:32.255Z,63.31
2018-06-08T06:10:59.669Z,63.63
2018-06-08T06:13:27.086Z,63.79
2018-06-08T06:15:54.775Z,63.53
2018-06-08T06:18:22.274Z,63.77
2018-06-08T06:20:49.752Z,64.17
2018-06-08T06:23:17.347Z,64.26
2018-06-08T06:25:44.863Z,64.45
2018-06-08T06:28:12.287Z,64.05
2018-06-08T06:30:40.282Z,63.82
2018-06-08T06:33:07.724Z,63.61
2018-06-08T06:35:35.206Z,63.46
2018-06-08T06:38:02.670Z,63.38
2018-06-08T06:40:30.238Z,64.01
2018-06-08T06:42:57.931Z,63.92
2018-06-08T06:45:25.460Z,63.64
2018-06-08T06:47:52.896Z,64.26
2018-06-08T06:50:20.348Z,63.89
2018-06-08T06:52:47.954Z,63.66
2018-06-08T06:55:15.399Z,63.43
2018-06-08T06:57:43.033Z,63.37
2018-06-08T07:00:10.641Z,63.47
2018-06-08T07:02:38.062Z,63.11
2018-06-08T07:07:39.984Z,62.25
2018-06-08T07:10:07.390Z,62.27
2018-06-08T07:12:34.880Z,62.31
2018-06-08T07:15:02.303Z,62.67
2018-06-08T07:17:30.175Z,62.57
2018-06-08T07:19:57.824Z,62.18
2018-06-08T07:22:25.273Z,62.13
2018-06-08T07:24:54.100Z,62.32
2018-06-08T07:27:22.800Z,62.62
2018-06-08T07:29:53.980Z,62.67
2018-06-08T07:32:21.476Z,62.82
2018-06-08T07:34:48.916Z,62.54
2018-06-08T07:37:16.359Z,62.67
2018-06-08T07:39:44.200Z,62.67
2018-06-08T07:42:11.856Z,62.49
2018-06-08T07:44:39.360Z,62.00
2018-06-08T07:47:06.872Z,59.68
2018-06-08T07:49:34.361Z,58.02
2018-06-08T07:52:01.840Z,56.11
2018-06-08T07:54:29.265Z,54.52
2018-06-08T07:56:56.743Z,54.14
2018-06-08T07:59:24.562Z,54.66
2018-06-08T08:01:52.046Z,54.72
2018-06-08T08:04:19.555Z,54.79
2018-06-08T08:06:46.993Z,54.42
2018-06-08T08:09:14.472Z,53.37
2018-06-08T08:11:41.861Z,54.23
2018-06-08T08:14:09.420Z,55.03
2018-06-08T08:16:37.248Z,55.56
2018-06-08T08:19:05.472Z,55.11
2018-06-08T08:21:32.959Z,55.15
2018-06-08T08:24:00.555Z,54.72
2018-06-08T08:26:28.004Z,54.53
2018-06-08T08:28:55.456Z,54.70
2018-06-08T08:31:23.541Z,54.23
2018-06-08T08:33:53.181Z,53.59
2018-06-08T08:36:20.638Z,51.39
2018-06-08T08:38:48.137Z,50.03
2018-06-08T08:41:15.651Z,49.81
2018-06-08T08:43:43.148Z,50.01
2018-06-08T08:46:10.570Z,49.48
2018-06-08T08:48:38.028Z,49.47
2018-06-08T08:51:06.269Z,49.82
2018-06-08T08:53:33.893Z,50.20
2018-06-08T08:56:01.645Z,49.95
2018-06-08T08:58:29.134Z,50.14
2018-06-08T09:00:56.609Z,49.27
2018-06-08T09:03:24.260Z,48.24
2018-06-08T09:05:51.695Z,47.17
2018-06-08T09:08:19.204Z,46.99
2018-06-08T09:10:46.802Z,46.25
2018-06-08T09:13:15.513Z,46.30
2018-06-08T09:15:42.940Z,46.10
2018-06-08T09:18:10.540Z,46.29
2018-06-08T09:20:38.028Z,47.02
2018-06-08T09:23:05.591Z,47.72
2018-06-08T09:25:33.008Z,48.33
2018-06-08T09:28:04.037Z,47.88
2018-06-08T09:30:31.961Z,47.33
2018-06-08T09:32:59.524Z,46.76
2018-06-08T09:35:26.935Z,46.36
2018-06-08T09:37:54.510Z,46.32
2018-06-08T09:40:22.016Z,46.09
2018-06-08T09:42:49.683Z,46.10
2018-06-08T09:45:17.335Z,46.38
2018-06-08T09:47:44.841Z,45.64
2018-06-08T09:50:12.303Z,45.25
2018-06-08T09:52:40.977Z,44.73
2018-06-08T09:55:08.595Z,43.57
2018-06-08T09:57:36.091Z,42.01
2018-06-08T10:00:03.774Z,41.67
2018-06-08T10:02:30.727Z,41.36
2018-06-08T10:04:58.332Z,41.13
2018-06-08T10:07:25.916Z,41.83
2018-06-08T10:09:53.341Z,41.96
2018-06-08T10:12:21.753Z,40.55
2018-06-08T10:14:49.236Z,41.54
2018-06-08T10:17:16.689Z,43.03
2018-06-08T10:19:44.169Z,42.10
2018-06-08T10:22:11.664Z,41.26
2018-06-08T10:24:42.690Z,40.63
2018-06-08T10:27:10.701Z,40.66
2018-06-08T10:29:38.215Z,40.86
2018-06-08T10:32:06.946Z,41.84
2018-06-08T10:34:34.421Z,41.99
2018-06-08T10:37:01.943Z,41.45
2018-06-08T10:39:29.426Z,40.78
2018-06-08T10:41:56.956Z,41.44
2018-06-08T10:44:24.367Z,40.74
2018-06-08T10:46:51.451Z,39.67
2018-06-08T10:49:18.945Z,39.81
2018-06-08T10:51:46.468Z,40.64
2018-06-08T10:54:15.489Z,41.40
2018-06-08T10:56:42.972Z,41.59
2018-06-08T10:59:10.439Z,43.00
2018-06-08T11:01:37.458Z,42.92
2018-06-08T11:04:04.606Z,42.88
2018-06-08T11:06:33.456Z,43.28
2018-06-08T11:09:01.279Z,43.39
2018-06-08T11:11:28.282Z,44.05
2018-06-08T11:13:55.311Z,44.97
2018-06-08T11:16:23.666Z,45.26
2018-06-08T11:18:50.714Z,45.29
2018-06-08T11:21:17.761Z,45.16
2018-06-08T11:23:44.870Z,45.01
2018-06-08T11:26:12.005Z,44.09
2018-06-08T11:28:39.638Z,44.00
2018-06-08T11:31:06.674Z,43.69
2018-06-08T11:33:33.675Z,43.81
2018-06-08T11:36:02.530Z,43.70
2018-06-08T11:38:29.500Z,44.55
2018-06-08T11:40:56.630Z,44.43
2018-06-08T11:43:24.348Z,44.01
2018-06-08T11:45:51.367Z,44.65
2018-06-08T11:48:18.396Z,44.90
2018-06-08T11:50:45.399Z,45.74
2018-06-08T11:53:13.092Z,46.36
2018-06-08T11:55:40.397Z,47.38
2018-06-08T11:58:07.443Z,47.52
2018-06-08T12:00:36.216Z,47.29
2018-06-08T12:03:03.627Z,46.64
2018-06-08T12:05:31.167Z,45.21
2018-06-08T12:07:59.250Z,44.92
2018-06-08T12:10:27.813Z,44.66
2018-06-08T12:12:54.894Z,44.23
2018-06-08T12:15:21.915Z,44.17
2018-06-08T12:17:49.578Z,44.39
2018-06-08T12:20:17.116Z,44.63
2018-06-08T12:22:44.323Z,44.65
2018-06-08T12:25:11.607Z,44.09
2018-06-08T12:27:39.855Z,43.60
2018-06-08T12:30:09.046Z,42.57
2018-06-08T12:32:36.678Z,41.11
2018-06-08T12:35:04.191Z,39.97
2018-06-08T12:37:31.821Z,40.15
2018-06-08T12:39:59.348Z,40.24
2018-06-08T12:42:26.912Z,41.23
2018-06-08T12:44:54.374Z,41.64
2018-06-08T12:47:21.925Z,40.68
2018-06-08T12:49:50.492Z,40.28
2018-06-08T12:52:17.978Z,39.31
2018-06-08T12:54:46.023Z,39.84
2018-06-08T12:57:13.508Z,39.38
2018-06-08T12:59:42.205Z,39.22
2018-06-08T13:02:10.460Z,39.05
2018-06-08T13:04:38.080Z,39.48
2018-06-08T13:07:05.103Z,39.06
2018-06-08T13:09:32.106Z,39.41
2018-06-08T13:11:59.078Z,39.79
2018-06-08T13:14:26.093Z,38.63
2018-06-08T13:16:54.065Z,38.50
2018-06-08T13:19:21.060Z,38.02
2018-06-08T13:21:48.486Z,37.93
2018-06-08T13:24:16.142Z,40.10
2018-06-08T13:26:44.760Z,40.51
2018-06-08T13:29:11.751Z,40.23
2018-06-08T13:31:38.752Z,39.81
2018-06-08T13:34:05.694Z,39.58
2018-06-08T13:36:33.880Z,39.63
2018-06-08T13:39:01.396Z,40.75
2018-06-08T13:41:28.888Z,40.15
2018-06-08T13:43:56.333Z,39.53
2018-06-08T13:46:23.891Z,39.70
2018-06-08T13:48:51.536Z,40.36
2018-06-08T13:51:19.762Z,41.17
2018-06-08T13:53:46.722Z,41.21
2018-06-08T13:56:13.744Z,41.10
2018-06-08T13:58:40.768Z,40.81
2018-06-08T14:01:07.893Z,40.92
2018-06-08T14:03:34.907Z,40.95
2018-06-08T14:06:01.912Z,40.08
2018-06-08T14:08:30.390Z,39.73
2018-06-08T14:10:57.424Z,39.88
2018-06-08T14:13:24.635Z,40.38
2018-06-08T14:15:51.650Z,40.58
2018-06-08T14:18:18.804Z,40.55
2018-06-08T14:20:45.793Z,40.55
2018-06-08T14:23:12.798Z,41.03
2018-06-08T14:25:39.878Z,41.51
2018-06-08T14:28:06.874Z,42.07
2018-06-08T14:30:34.349Z,41.85
2018-06-08T14:33:01.882Z,42.38
2018-06-08T14:35:29.330Z,43.28
2018-06-08T14:37:59.730Z,43.06
2018-06-08T14:40:27.245Z,43.78
2018-06-08T14:42:54.771Z,43.83
2018-06-08T14:45:22.231Z,45.07
2018-06-08T14:47:49.815Z,46.64
2018-06-08T14:50:17.463Z,47.83
2018-06-08T14:52:45.167Z,49.91
2018-06-08T14:55:12.610Z,52.38
2018-06-08T14:57:41.206Z,54.46
2018-06-08T15:00:08.858Z,55.56
2018-06-08T15:02:36.998Z,53.68
2018-06-08T15:05:05.072Z,54.48
2018-06-08T15:07:32.565Z,55.60
2018-06-08T15:10:00.160Z,55.66
2018-06-08T15:12:27.570Z,55.69
2018-06-08T15:14:55.007Z,55.67
2018-06-08T15:17:23.122Z,54.76
2018-06-08T15:19:50.609Z,54.06
2018-06-08T15:22:18.085Z,53.33
2018-06-08T15:24:46.040Z,53.25
2018-06-08T15:27:14.504Z,53.05
2018-06-08T15:29:42.038Z,52.86
2018-06-08T15:32:09.544Z,52.71
2018-06-08T15:34:37.036Z,52.15
2018-06-08T15:37:08.057Z,51.61
2018-06-08T15:39:35.621Z,50.69
2018-06-08T15:42:03.140Z,49.61
2018-06-08T15:44:31.707Z,48.00
2018-06-08T15:46:59.781Z,47.30
2018-06-08T15:49:27.232Z,46.79
2018-06-08T15:51:54.686Z,45.71
2018-06-08T15:54:22.299Z,44.76
2018-06-08T15:56:49.884Z,44.67
2018-06-08T15:59:17.329Z,43.44
2018-06-08T16:01:44.966Z,43.39
2018-06-08T16:04:12.458Z,43.61
2018-06-08T16:06:41.976Z,44.73
2018-06-08T16:09:12.496Z,47.67
2018-06-08T16:11:39.933Z,49.66
2018-06-08T16:14:08.315Z,50.78
2018-06-08T16:16:35.304Z,51.50
2018-06-08T16:19:02.448Z,51.33
2018-06-08T16:21:30.550Z,51.52
2018-06-08T16:23:58.019Z,51.96
2018-06-08T16:26:25.484Z,52.03
2018-06-08T16:28:52.946Z,52.46
2018-06-08T16:31:20.376Z,52.05
2018-06-08T16:33:49.084Z,51.35
2018-06-08T16:36:18.373Z,51.44
2018-06-08T16:38:46.057Z,51.74
2018-06-08T16:41:14.582Z,50.85
2018-06-08T16:43:42.089Z,50.40
2018-06-08T16:46:09.552Z,50.97
2018-06-08T16:48:37.145Z,51.25
2018-06-08T16:51:04.616Z,51.32
2018-06-08T16:53:32.131Z,51.19
2018-06-08T16:55:59.529Z,52.70
2018-06-08T16:58:26.659Z,53.68
2018-06-08T17:00:54.102Z,54.50
2018-06-08T17:03:21.536Z,54.80
2018-06-08T17:05:49.046Z,54.98
2018-06-08T17:08:16.584Z,54.94
2018-06-08T17:10:44.020Z,54.65
2018-06-08T17:13:11.437Z,55.58
2018-06-08T17:15:38.949Z,56.31
2018-06-08T17:18:06.560Z,56.63
2018-06-08T17:20:33.997Z,57.63
2018-06-08T17:23:01.408Z,58.63
2018-06-08T17:25:28.879Z,59.57
2018-06-08T17:27:56.340Z,60.14
2018-06-08T17:30:23.821Z,60.57
2018-06-08T17:32:58.996Z,60.94
2018-06-08T17:35:26.508Z,61.15
2018-06-08T17:37:53.989Z,61.14
2018-06-08T17:40:21.473Z,61.00
2018-06-08T17:42:48.985Z,60.81
2018-06-08T17:45:16.490Z,60.31
2018-06-08T17:47:43.991Z,60.11
2018-06-08T17:50:11.455Z,60.07
2018-06-08T17:52:38.981Z,59.85
2018-06-08T17:55:07.577Z,59.36
2018-06-08T17:57:35.036Z,58.85
2018-06-08T18:00:02.477Z,58.96
2018-06-08T18:02:29.911Z,59.00
2018-06-08T18:04:57.313Z,58.97
2018-06-08T18:07:24.816Z,59.21
2018-06-08T18:09:52.266Z,59.13
2018-06-08T18:12:19.793Z,58.99
2018-06-08T18:14:47.225Z,58.87
2018-06-08T18:17:14.994Z,59.03
2018-06-08T18:19:42.606Z,58.56
2018-06-08T18:22:10.074Z,58.68
2018-06-08T18:24:37.548Z,58.79
2018-06-08T18:27:05.991Z,58.86
2018-06-08T18:29:33.412Z,59.39
2018-06-08T18:32:01.890Z,59.63
2018-06-08T18:34:29.383Z,59.37
2018-06-08T18:36:57.019Z,59.83
2018-06-08T18:39:24.499Z,60.52
2018-06-08T18:41:53.308Z,60.74
2018-06-08T18:44:20.730Z,61.08
2018-06-08T18:46:48.197Z,60.83
2018-06-08T18:49:15.607Z,60.60
2018-06-08T18:51:43.057Z,60.33
2018-06-08T18:54:10.503Z,60.26
2018-06-08T18:56:38.009Z,60.28
2018-06-08T18:59:05.444Z,60.09
2018-06-08T19:01:32.920Z,60.04
2018-06-08T19:04:00.379Z,60.03
2018-06-08T19:06:27.861Z,60.58
2018-06-08T19:08:55.266Z,60.78
2018-06-08T19:11:22.743Z,61.01
2018-06-08T19:13:50.313Z,60.98
2018-06-08T19:16:17.864Z,61.23
2018-06-08T19:18:45.324Z,61.24
2018-06-08T19:21:12.709Z,61.06
2018-06-08T19:23:40.879Z,60.95
2018-06-08T19:26:08.377Z,60.90
2018-06-08T19:28:38.310Z,60.96
2018-06-08T19:31:06.266Z,61.13
2018-06-08T19:33:33.781Z,61.38
2018-06-08T19:36:01.366Z,61.58
2018-06-08T19:38:28.859Z,62.03
2018-06-08T19:40:56.375Z,62.33
2018-06-08T19:43:23.844Z,62.46
2018-06-08T19:45:51.337Z,62.77
2018-06-08T19:48:18.922Z,62.46
2018-06-08T19:50:47.394Z,62.94
2018-06-08T19:53:14.793Z,62.48
2018-06-08T19:55:42.397Z,62.03
2018-06-08T19:58:09.896Z,62.16
2018-06-08T20:00:37.355Z,63.21
2018-06-08T20:03:04.808Z,64.00
2018-06-08T20:05:32.875Z,63.89
2018-06-08T20:08:00.401Z,63.49
2018-06-08T20:10:27.887Z,63.25
2018-06-08T20:12:55.492Z,63.41
2018-06-08T20:15:22.994Z,63.86
2018-06-08T20:17:50.397Z,63.85
2018-06-08T20:20:17.851Z,63.84
2018-06-08T20:22:45.656Z,64.03
2018-06-08T20:25:13.215Z,64.51
2018-06-08T20:27:40.671Z,65.61
2018-06-08T20:30:08.147Z,66.10
2018-06-08T20:32:36.365Z,66.49
2018-06-08T20:35:03.913Z,66.76
2018-06-08T20:37:31.538Z,66.80
2018-06-08T20:39:59.038Z,67.61
2018-06-08T20:42:26.620Z,68.23
2018-06-08T20:44:54.049Z,69.04
2018-06-08T20:47:21.457Z,69.55
2018-06-08T20:49:49.520Z,69.78
2018-06-08T20:52:17.836Z,69.64
2018-06-08T20:54:45.292Z,69.58
2018-06-08T20:57:12.697Z,69.48
2018-06-08T20:59:40.179Z,69.28
2018-06-08T21:02:07.729Z,69.07
2018-06-08T21:04:35.393Z,69.08
2018-06-08T21:07:02.832Z,69.05
2018-06-08T21:09:30.297Z,69.07
2018-06-08T21:11:58.140Z,69.20
2018-06-08T21:14:25.547Z,69.46
2018-06-08T21:16:53.226Z,68.54
2018-06-08T21:19:30.617Z,68.24
2018-06-08T21:21:58.127Z,68.40
2018-06-08T21:24:25.581Z,68.42
2018-06-08T21:26:53.115Z,68.62
2018-06-08T21:29:20.632Z,68.99
2018-06-08T21:31:48.092Z,69.18
2018-06-08T21:34:15.906Z,68.91
2018-06-08T21:36:43.852Z,68.67
2018-06-08T21:39:11.334Z,68.70
2018-06-08T21:41:38.754Z,68.92
2018-06-08T21:44:06.210Z,69.17
2018-06-08T21:46:33.666Z,69.34
2018-06-08T21:49:01.114Z,69.38
2018-06-08T21:51:28.591Z,69.42
2018-06-08T21:53:56.036Z,69.57
2018-06-08T21:56:24.255Z,69.77
2018-06-08T21:58:52.610Z,70.58
2018-06-08T22:01:20.061Z,71.07
2018-06-08T22:03:48.395Z,71.29
2018-06-08T22:06:15.801Z,71.57
2018-06-08T22:08:43.244Z,71.56
2018-06-08T22:11:10.712Z,71.55
2018-06-08T22:13:38.137Z,71.25
2018-06-08T22:16:05.598Z,71.32
2018-06-08T22:18:33.170Z,71.85
2018-06-08T22:21:00.625Z,72.22
2018-06-08T22:23:28.069Z,72.25
2018-06-08T22:25:55.541Z,72.48
2018-06-08T22:28:22.975Z,72.56
2018-06-08T22:30:50.429Z,72.70
2018-06-08T22:33:17.978Z,72.94
2018-06-08T22:35:45.443Z,72.62
2018-06-08T22:38:12.924Z,72.47
2018-06-08T22:40:40.361Z,72.34
2018-06-08T22:43:07.812Z,71.94
2018-06-08T22:45:35.304Z,71.78
2018-06-08T22:48:02.778Z,71.52
2018-06-08T22:50:30.228Z,71.42
2018-06-08T22:52:57.685Z,70.98
2018-06-08T22:55:25.156Z,70.53
2018-06-08T22:57:52.676Z,70.47
2018-06-08T23:00:20.154Z,70.15
2018-06-08T23:02:48.442Z,69.78
2018-06-08T23:05:16.848Z,69.66
2018-06-08T23:07:45.191Z,69.81
2018-06-08T23:10:12.600Z,69.59
2018-06-08T23:12:40.070Z,69.51
2018-06-08T23:15:07.482Z,70.31
2018-06-08T23:17:34.890Z,70.33
2018-06-08T23:20:02.370Z,70.32
2018-06-08T23:22:29.823Z,70.44
2018-06-08T23:24:57.289Z,70.76
2018-06-08T23:27:24.725Z,70.57
2018-06-08T23:29:52.180Z,70.68
2018-06-08T23:32:19.584Z,70.73
2018-06-08T23:34:47.101Z,70.91
2018-06-08T23:37:14.574Z,70.98
2018-06-08T23:39:42.023Z,71.12
2018-06-08T23:42:09.626Z,71.64
2018-06-08T23:44:37.043Z,71.55
2018-06-08T23:47:04.503Z,71.77
2018-06-08T23:49:31.976Z,71.69
2018-06-08T23:51:59.506Z,71.58
2018-06-08T23:54:28.090Z,71.56
2018-06-08T23:56:55.824Z,71.26
2018-06-08T23:59:24.073Z,71.05
